Time;durP1;ratioP1;P1;durP2;ratioP2;P2;SDS_P1;SDS_P2;PMS_P1;PMS_P2;Temp;Humidity;BMP_temperature;BMP_pressure;BME280_temperature;BME280_humidity;BME280_pressure;Samples;Min_cycle;Max_cycle;Signal;HPM_P1;HPM_P2
2021/06/08 00:01:41;;;;;;;;;;;;;;;24.89;57.79;101291.22;5047421;28;1894;-74
2021/06/08 00:04:06;;;;;;;;;;;;;;;24.89;58.56;101289.28;5040123;28;1710;-74
2021/06/08 00:06:31;;;;;;;;;;;;;;;24.79;59.02;101286.78;5044628;28;1754;-72
2021/06/08 00:08:57;;;;;;;;;;;;;;;24.74;59.35;101284.13;5033524;28;1942;-74
2021/06/08 00:11:22;;;;;;;;;;;;;;;24.78;59.56;101285.13;5041777;28;1225;-74
2021/06/08 00:13:48;;;;;;;;;;;;;;;24.80;59.49;101282.06;5042020;28;2106;-74
2021/06/08 00:16:13;;;;;;;;;;;;;;;24.77;58.07;101282.66;5030749;28;1325;-72
2021/06/08 00:18:38;;;;;;;;;;;;;;;24.84;57.83;101288.59;5034198;28;1910;-72
2021/06/08 00:21:04;;;;;;;;;;;;;;;24.84;57.88;101283.06;5038389;28;1194;-72
2021/06/08 00:23:29;;;;;;;;;;;;;;;24.84;57.45;101285.84;5036518;28;2107;-72
2021/06/08 00:25:54;;;;;;;;;;;;;;;24.79;57.37;101280.41;5043009;28;1729;-72
2021/06/08 00:28:20;;;;;;;;;;;;;;;24.77;57.68;101272.50;5036350;28;877;-72
2021/06/08 00:30:45;;;;;;;;;;;;;;;24.75;57.16;101282.16;5029419;28;1314;-72
2021/06/08 00:33:11;;;;;;;;;;;;;;;24.73;58.16;101285.25;5033402;28;1868;-74
2021/06/08 00:35:36;;;;;;;;;;;;;;;24.74;59.42;101284.13;5039460;28;1036;-74
2021/06/08 00:38:02;;;;;;;;;;;;;;;24.67;59.58;101269.94;5036802;28;1939;-73
2021/06/08 00:40:27;;;;;;;;;;;;;;;24.74;58.86;101270.34;5037553;28;2026;-73
2021/06/08 00:42:53;;;;;;;;;;;;;;;24.83;59.04;101265.75;5041793;28;1729;-73
2021/06/08 00:45:19;;;;;;;;;;;;;;;24.84;58.01;101264.59;5038759;28;2009;-73
2021/06/08 00:47:44;;;;;;;;;;;;;;;24.75;59.45;101260.97;5038152;28;1683;-74
2021/06/08 00:50:10;;;;;;;;;;;;;;;24.68;59.64;101258.63;5041076;28;837;-74
2021/06/08 00:52:35;;;;;;;;;;;;;;;24.81;58.71;101254.22;5032484;28;2075;-73
2021/06/08 00:55:00;;;;;;;;;;;;;;;24.84;59.24;101241.75;5035642;28;1970;-72
2021/06/08 00:57:26;;;;;;;;;;;;;;;24.92;58.69;101239.06;5039157;28;3077;-74
2021/06/08 00:59:51;;;;;;;;;;;;;;;24.90;58.78;101243.25;5040473;28;2031;-74
2021/06/08 01:02:16;;;;;;;;;;;;;;;24.79;60.45;101250.13;5031871;28;1765;-74
2021/06/08 01:04:42;;;;;;;;;;;;;;;24.75;59.49;101238.94;5041318;28;918;-73
2021/06/08 01:07:07;;;;;;;;;;;;;;;24.77;57.43;101242.19;5041451;28;1854;-73
2021/06/08 01:09:33;;;;;;;;;;;;;;;24.83;57.66;101238.19;5030700;28;1773;-74
2021/06/08 01:11:58;;;;;;;;;;;;;;;24.83;57.66;101232.69;5040591;28;908;-74
2021/06/08 01:14:23;;;;;;;;;;;;;;;24.78;58.13;101241.03;5043962;28;2105;-73
2021/06/08 01:16:48;;;;;;;;;;;;;;;24.68;57.97;101242.09;5037813;28;1137;-74
2021/06/08 01:19:14;;;;;;;;;;;;;;;24.61;58.10;101244.47;5041065;28;2130;-74
2021/06/08 01:21:39;;;;;;;;;;;;;;;24.62;58.17;101254.34;5035562;28;2190;-73
2021/06/08 01:24:04;;;;;;;;;;;;;;;24.61;58.00;101246.38;5047155;28;1941;-74
2021/06/08 01:26:31;;;;;;;;;;;;;;;24.65;59.58;101245.47;5041400;28;902;-75
2021/06/08 01:28:57;;;;;;;;;;;;;;;24.75;57.65;101246.34;5030489;28;1227;-77
2021/06/08 01:31:25;;;;;;;;;;;;;;;24.69;58.29;101248.44;5037031;28;1861;-74
2021/06/08 01:33:50;;;;;;;;;;;;;;;24.74;57.77;101251.06;5043856;28;1867;-74
2021/06/08 01:36:18;;;;;;;;;;;;;;;24.74;57.79;101248.31;5036803;28;1895;-74
2021/06/08 01:38:43;;;;;;;;;;;;;;;24.71;58.02;101244.25;5045297;28;1957;-74
2021/06/08 01:41:11;;;;;;;;;;;;;;;24.69;58.06;101238.22;5044359;28;2000;-74
2021/06/08 01:43:36;;;;;;;;;;;;;;;24.68;57.79;101246.78;5041776;28;2414;-74
2021/06/08 01:46:02;;;;;;;;;;;;;;;24.67;58.02;101245.16;5047342;28;2076;-74
2021/06/08 01:48:27;;;;;;;;;;;;;;;24.77;57.41;101249.63;5039533;28;2005;-74
2021/06/08 01:50:57;;;;;;;;;;;;;;;24.65;60.09;101242.72;5045148;28;1754;-76
2021/06/08 01:53:25;;;;;;;;;;;;;;;24.76;59.64;101248.81;5042925;28;1461;-76
2021/06/08 01:55:51;;;;;;;;;;;;;;;24.84;59.30;101250.81;5033724;28;1387;-75
2021/06/08 01:58:35;;;;;;;;;;;;;;;24.79;58.42;101250.97;5038932;28;2050;-75
2021/06/08 02:01:05;;;;;;;;;;;;;;;24.83;58.38;101256.63;5041671;28;2038;-75
2021/06/08 02:03:31;;;;;;;;;;;;;;;24.80;58.74;101255.31;5046157;28;1696;-75
2021/06/08 02:06:12;;;;;;;;;;;;;;;24.66;59.42;101260.06;5043088;28;1211;-73
2021/06/08 02:08:44;;;;;;;;;;;;;;;24.77;57.49;101255.13;5046785;28;1795;-73
2021/06/08 02:11:12;;;;;;;;;;;;;;;24.70;59.80;101266.56;5039530;28;1742;-73
2021/06/08 02:13:53;;;;;;;;;;;;;;;24.81;57.80;101261.66;5041011;28;1781;-73
2021/06/08 02:16:23;;;;;;;;;;;;;;;24.80;57.67;101266.34;5038143;28;1067;-74
2021/06/08 02:18:49;;;;;;;;;;;;;;;24.80;58.08;101266.34;5040544;28;1994;-74
2021/06/08 02:21:16;;;;;;;;;;;;;;;24.83;57.47;101262.97;5036151;28;898;-74
2021/06/08 02:23:42;;;;;;;;;;;;;;;24.83;56.94;101271.25;5032976;28;968;-74
2021/06/08 02:26:08;;;;;;;;;;;;;;;24.79;57.63;101266.66;5038277;28;1970;-74
2021/06/08 02:28:36;;;;;;;;;;;;;;;24.76;57.40;101262.59;5043263;28;1534;-74
2021/06/08 02:31:03;;;;;;;;;;;;;;;24.79;57.55;101261.97;5041473;28;1921;-74
2021/06/08 02:33:28;;;;;;;;;;;;;;;24.77;57.84;101260.63;5038395;28;2085;-74
2021/06/08 02:35:54;;;;;;;;;;;;;;;24.79;57.11;101263.91;5040796;28;854;-74
2021/06/08 02:38:21;;;;;;;;;;;;;;;24.81;57.48;101267.16;5045523;28;1866;-74
2021/06/08 02:40:46;;;;;;;;;;;;;;;24.75;57.14;101263.72;5032656;28;885;-74
2021/06/08 02:43:12;;;;;;;;;;;;;;;24.76;57.14;101265.34;5032447;28;896;-74
2021/06/08 02:45:39;;;;;;;;;;;;;;;24.78;57.96;101265.84;5050782;28;872;-74
2021/06/08 02:48:05;;;;;;;;;;;;;;;24.63;60.12;101267.00;5051759;28;909;-73
2021/06/08 02:50:30;;;;;;;;;;;;;;;24.70;58.64;101267.38;5052597;28;830;-72
2021/06/08 02:52:57;;;;;;;;;;;;;;;24.66;58.53;101262.81;5052263;28;1159;-73
2021/06/08 02:55:23;;;;;;;;;;;;;;;24.68;58.20;101263.31;5052161;28;862;-73
2021/06/08 02:57:51;;;;;;;;;;;;;;;24.66;57.92;101265.56;5049932;28;3118;-73
2021/06/08 03:00:17;;;;;;;;;;;;;;;24.67;57.70;101259.75;5067639;28;2801;-73
2021/06/08 03:02:44;;;;;;;;;;;;;;;24.66;57.83;101260.06;5071885;28;1116;-73
2021/06/08 03:05:16;;;;;;;;;;;;;;;24.67;58.23;101265.28;5072100;28;786;-74
2021/06/08 03:07:43;;;;;;;;;;;;;;;24.67;57.74;101264.44;5071986;28;1145;-73
2021/06/08 03:10:16;;;;;;;;;;;;;;;24.68;57.39;101275.16;5064394;28;1682;-73
2021/06/08 03:12:46;;;;;;;;;;;;;;;24.65;57.47;101264.75;5048991;28;850;-73
2021/06/08 03:15:13;;;;;;;;;;;;;;;24.66;57.63;101262.81;5050783;28;859;-73
2021/06/08 03:17:41;;;;;;;;;;;;;;;24.65;57.46;101269.44;5031298;28;1948;-73
2021/06/08 03:20:11;;;;;;;;;;;;;;;24.67;57.19;101267.19;5031846;28;826;-73
2021/06/08 03:22:37;;;;;;;;;;;;;;;24.67;58.24;101267.19;5031754;28;1135;-74
2021/06/08 03:25:02;;;;;;;;;;;;;;;24.72;57.46;101265.13;5030392;28;1394;-71
2021/06/08 03:27:28;;;;;;;;;;;;;;;24.75;57.51;101272.00;5030596;28;1508;-74
2021/06/08 03:29:56;;;;;;;;;;;;;;;24.76;56.59;101265.34;5031762;28;867;-71
2021/06/08 03:32:22;;;;;;;;;;;;;;;24.74;57.88;101270.34;5044409;28;1748;-72
2021/06/08 03:34:47;;;;;;;;;;;;;;;24.69;57.57;101270.47;5051491;28;866;-75
2021/06/08 03:37:15;;;;;;;;;;;;;;;24.75;57.35;101273.91;5041122;28;2090;-73
2021/06/08 03:39:41;;;;;;;;;;;;;;;24.71;58.94;101279.25;5041722;28;1979;-71
2021/06/08 03:42:07;;;;;;;;;;;;;;;24.57;58.03;101272.91;5039878;28;2079;-75
2021/06/08 03:44:34;;;;;;;;;;;;;;;24.66;56.86;101274.63;5047197;28;878;-74
2021/06/08 03:46:59;;;;;;;;;;;;;;;24.59;56.35;101282.53;5044966;28;1846;-74
2021/06/08 03:49:24;;;;;;;;;;;;;;;24.60;56.23;101275.88;5038279;28;1820;-74
2021/06/08 03:51:51;;;;;;;;;;;;;;;24.63;56.46;101277.19;5041030;28;2038;-74
2021/06/08 03:54:16;;;;;;;;;;;;;;;24.72;56.14;101286.38;5038600;28;875;-75
2021/06/08 03:56:43;;;;;;;;;;;;;;;24.61;56.41;101279.44;5034699;28;1939;-74
2021/06/08 03:59:12;;;;;;;;;;;;;;;24.57;56.42;101284.78;5040617;28;1997;-74
2021/06/08 04:01:38;;;;;;;;;;;;;;;24.56;58.39;101285.88;5035844;28;2095;-75
2021/06/08 04:04:07;;;;;;;;;;;;;;;24.51;58.28;101292.31;5038234;28;2036;-74
2021/06/08 04:06:33;;;;;;;;;;;;;;;24.62;56.14;101292.91;5036082;28;1917;-74
2021/06/08 04:09:02;;;;;;;;;;;;;;;24.58;56.42;101291.09;5037532;28;1701;-73
2021/06/08 04:11:28;;;;;;;;;;;;;;;24.60;56.41;101288.84;5052769;28;895;-73
2021/06/08 04:13:54;;;;;;;;;;;;;;;24.62;56.44;101295.66;5042620;28;1809;-73
2021/06/08 04:16:20;;;;;;;;;;;;;;;24.52;59.36;101301.38;5038181;28;1363;-72
2021/06/08 04:18:45;;;;;;;;;;;;;;;24.65;59.83;101305.25;5035962;28;1914;-67
2021/06/08 04:21:27;;;;;;;;;;;;;;;24.63;60.54;101299.22;5038083;28;1635;-68
2021/06/08 04:23:59;;;;;;;;;;;;;;;24.59;59.99;101307.31;5050559;28;850;-68
2021/06/08 04:26:25;;;;;;;;;;;;;;;24.57;59.95;101316.97;5050893;28;1223;-70
2021/06/08 04:28:50;;;;;;;;;;;;;;;24.60;60.17;101311.69;5050100;28;1144;-71
2021/06/08 04:31:16;;;;;;;;;;;;;;;24.56;60.08;101310.66;5049994;28;1573;-67
2021/06/08 04:33:43;;;;;;;;;;;;;;;24.69;58.42;101317.31;5044748;28;1713;-67
2021/06/08 04:36:08;;;;;;;;;;;;;;;24.48;59.73;101327.88;5042484;28;1659;-67
2021/06/08 04:38:36;;;;;;;;;;;;;;;24.53;59.23;101319.56;5041156;28;1923;-68
2021/06/08 04:41:02;;;;;;;;;;;;;;;24.42;59.44;101321.66;5032773;28;2044;-67
2021/06/08 04:43:27;;;;;;;;;;;;;;;24.55;58.57;101322.81;5042122;28;2002;-67
2021/06/08 04:45:52;;;;;;;;;;;;;;;24.44;58.40;101322.16;5039104;28;828;-67
2021/06/08 04:48:21;;;;;;;;;;;;;;;24.59;58.04;101314.72;5030162;28;1274;-67
2021/06/08 04:50:49;;;;;;;;;;;;;;;24.49;57.62;101315.75;5048237;28;1310;-67
2021/06/08 04:53:14;;;;;;;;;;;;;;;24.54;57.86;101312.09;5040779;28;1635;-68
2021/06/08 04:55:39;;;;;;;;;;;;;;;24.50;57.13;101304.44;5035731;28;1549;-67
2021/06/08 04:58:05;;;;;;;;;;;;;;;24.59;57.52;101306.47;5046948;28;1886;-67
2021/06/08 05:00:39;;;;;;;;;;;;;;;24.47;58.24;101309.75;5031840;28;3245;-70
2021/06/08 05:03:13;;;;;;;;;;;;;;;24.32;56.77;101308.91;5030595;28;1681;-70
2021/06/08 05:05:39;;;;;;;;;;;;;;;24.43;58.16;101311.47;5037584;28;858;-70
2021/06/08 05:08:25;;;;;;;;;;;;;;;24.43;57.89;101306.78;5047904;28;1136;-70
2021/06/08 05:11:07;;;;;;;;;;;;;;;24.57;57.27;101303.22;5049095;28;771;-70
2021/06/08 05:13:34;;;;;;;;;;;;;;;24.48;55.81;101309.41;5051867;28;839;-69
2021/06/08 05:16:00;;;;;;;;;;;;;;;24.50;57.69;101307.19;5052556;28;1364;-73
2021/06/08 05:18:27;;;;;;;;;;;;;;;24.45;57.88;101301.78;5052895;28;1902;-71
2021/06/08 05:20:52;;;;;;;;;;;;;;;24.53;57.08;101303.03;5053268;28;806;-71
2021/06/08 05:23:18;;;;;;;;;;;;;;;24.52;57.14;101309.66;5053307;28;806;-72
2021/06/08 05:25:44;;;;;;;;;;;;;;;24.48;57.31;101314.13;5053406;28;1259;-72
2021/06/08 05:28:12;;;;;;;;;;;;;;;24.51;57.91;101311.59;5046044;28;2049;-72
2021/06/08 05:30:38;;;;;;;;;;;;;;;24.47;58.36;101316.06;5043403;28;875;-75
2021/06/08 05:33:03;;;;;;;;;;;;;;;24.46;58.66;101311.66;5048248;28;1739;-73
2021/06/08 05:35:29;;;;;;;;;;;;;;;24.36;57.35;101313.81;5048229;28;799;-69
2021/06/08 05:38:01;;;;;;;;;;;;;;;24.49;57.50;101315.75;5033735;28;1961;-69
2021/06/08 05:40:27;;;;;;;;;;;;;;;24.54;58.71;101312.91;5050873;28;875;-69
2021/06/08 05:42:52;;;;;;;;;;;;;;;24.74;57.31;101305.34;5043142;28;1645;-69
2021/06/08 05:45:17;;;;;;;;;;;;;;;24.57;58.37;101308.72;5043550;28;1921;-69
2021/06/08 05:47:43;;;;;;;;;;;;;;;24.66;57.96;101304.94;5053123;28;890;-69
2021/06/08 05:50:08;;;;;;;;;;;;;;;24.41;57.08;101306.28;5052217;28;899;-69
2021/06/08 05:52:34;;;;;;;;;;;;;;;24.29;56.48;101305.97;5052244;28;878;-69
2021/06/08 05:55:00;;;;;;;;;;;;;;;24.16;56.44;101304.81;5050925;28;1174;-69
2021/06/08 05:57:26;;;;;;;;;;;;;;;24.42;56.74;101304.31;5051785;28;1214;-69
2021/06/08 05:59:51;;;;;;;;;;;;;;;24.58;56.11;101304.84;5051590;28;1937;-69
2021/06/08 06:02:17;;;;;;;;;;;;;;;24.29;56.22;101311.47;5051638;28;1229;-69
2021/06/08 06:04:44;;;;;;;;;;;;;;;24.48;57.31;101300.34;5052676;28;876;-69
2021/06/08 06:07:09;;;;;;;;;;;;;;;24.38;55.93;101303.31;5052862;28;842;-69
2021/06/08 06:09:34;;;;;;;;;;;;;;;24.42;56.77;101309.84;5052871;28;948;-69
2021/06/08 06:12:00;;;;;;;;;;;;;;;24.40;55.90;101306.56;5052522;28;934;-69
2021/06/08 06:14:25;;;;;;;;;;;;;;;24.30;56.17;101302.88;5052887;28;944;-69
2021/06/08 06:16:53;;;;;;;;;;;;;;;24.41;56.77;101308.19;5054175;28;3311;-69
2021/06/08 06:19:21;;;;;;;;;;;;;;;24.40;55.75;101310.13;5063933;28;2281;-69
2021/06/08 06:21:47;;;;;;;;;;;;;;;24.39;57.03;101308.53;5058252;28;2256;-69
2021/06/08 06:24:12;;;;;;;;;;;;;;;24.42;56.51;101299.63;5068235;28;1320;-69
2021/06/08 06:26:39;;;;;;;;;;;;;;;24.16;56.35;101299.31;5057068;28;1666;-69
2021/06/08 06:29:05;;;;;;;;;;;;;;;24.21;56.10;101296.47;5063943;28;1542;-69
2021/06/08 06:31:31;;;;;;;;;;;;;;;24.29;55.96;101295.78;5054780;28;1629;-69
2021/06/08 06:33:57;;;;;;;;;;;;;;;24.42;56.07;101294.13;5055520;28;2276;-69
2021/06/08 06:36:24;;;;;;;;;;;;;;;24.23;55.73;101294.25;5057046;28;1329;-69
2021/06/08 06:38:50;;;;;;;;;;;;;;;24.28;55.91;101294.13;5065320;28;1962;-69
2021/06/08 06:41:17;;;;;;;;;;;;;;;24.12;56.01;101288.09;5062193;28;1654;-69
2021/06/08 06:43:50;;;;;;;;;;;;;;;24.08;56.22;101289.03;5058305;28;1540;-69
2021/06/08 06:46:16;;;;;;;;;;;;;;;24.24;56.28;101292.28;5068661;28;1638;-69
2021/06/08 06:48:42;;;;;;;;;;;;;;;24.41;56.23;101289.75;5057249;28;1792;-69
2021/06/08 06:51:08;;;;;;;;;;;;;;;24.41;56.75;101286.16;5063069;28;1608;-69
2021/06/08 06:53:34;;;;;;;;;;;;;;;24.45;56.56;101284.44;5064059;28;1599;-69
2021/06/08 06:55:59;;;;;;;;;;;;;;;24.46;56.38;101281.38;5055971;28;1613;-69
2021/06/08 06:58:25;;;;;;;;;;;;;;;24.54;56.10;101287.31;5068215;28;1933;-69
2021/06/08 07:00:52;;;;;;;;;;;;;;;24.26;55.93;101277.09;5058443;28;1611;-69
2021/06/08 07:03:23;;;;;;;;;;;;;;;24.28;55.82;101276.78;5061369;28;1546;-69
2021/06/08 07:05:48;;;;;;;;;;;;;;;24.28;56.03;101280.34;5066153;28;1566;-69
2021/06/08 07:08:14;;;;;;;;;;;;;;;24.09;56.00;101276.91;5054693;28;1538;-69
2021/06/08 07:10:40;;;;;;;;;;;;;;;23.86;56.40;101278.72;5069396;28;2460;-69
2021/06/08 07:13:06;;;;;;;;;;;;;;;24.09;55.93;101274.16;5062839;28;1564;-69
2021/06/08 07:15:32;;;;;;;;;;;;;;;24.04;56.47;101271.50;5059655;28;1620;-69
2021/06/08 07:17:58;;;;;;;;;;;;;;;24.07;56.13;101268.94;5050373;28;1982;-69
2021/06/08 07:20:28;;;;;;;;;;;;;;;24.01;56.21;101269.38;5051704;28;851;-69
2021/06/08 07:22:54;;;;;;;;;;;;;;;24.07;56.14;101270.91;5051270;28;1096;-69
2021/06/08 07:25:20;;;;;;;;;;;;;;;24.05;56.25;101264.88;5051636;28;899;-69
2021/06/08 07:27:46;;;;;;;;;;;;;;;24.20;55.93;101263.75;5051103;28;910;-69
2021/06/08 07:30:13;;;;;;;;;;;;;;;24.26;56.24;101263.34;5051498;28;824;-69
2021/06/08 07:32:39;;;;;;;;;;;;;;;24.24;56.00;101267.53;5051563;28;908;-69
2021/06/08 07:35:12;;;;;;;;;;;;;;;24.03;56.38;101265.19;5050641;28;883;-69
2021/06/08 07:37:39;;;;;;;;;;;;;;;24.09;56.25;101276.91;5049691;28;839;-69
2021/06/08 07:40:07;;;;;;;;;;;;;;;23.97;56.37;101276.59;5051122;28;1886;-69
2021/06/08 07:42:37;;;;;;;;;;;;;;;24.00;56.48;101267.72;5051074;28;964;-69
2021/06/08 07:45:08;;;;;;;;;;;;;;;24.02;56.78;101273.72;5049957;28;1317;-69
2021/06/08 07:47:34;;;;;;;;;;;;;;;24.08;56.75;101267.81;5051140;28;862;-69
2021/06/08 07:50:01;;;;;;;;;;;;;;;24.01;56.46;101270.19;5051265;28;890;-69
2021/06/08 07:52:27;;;;;;;;;;;;;;;24.16;56.27;101268.25;5050907;28;901;-69
2021/06/08 07:54:53;;;;;;;;;;;;;;;24.05;56.01;101268.44;5051187;28;833;-69
2021/06/08 07:57:19;;;;;;;;;;;;;;;24.02;56.24;101268.22;5051137;28;925;-69
2021/06/08 07:59:44;;;;;;;;;;;;;;;24.25;56.45;101267.22;5044465;28;2163;-69
2021/06/08 08:02:10;;;;;;;;;;;;;;;24.18;55.99;101266.00;5038468;28;1744;-69
2021/06/08 08:04:50;;;;;;;;;;;;;;;24.04;56.38;101266.78;5048599;28;865;-69
2021/06/08 08:07:27;;;;;;;;;;;;;;;24.05;56.32;101262.13;5030939;28;835;-69
2021/06/08 08:09:53;;;;;;;;;;;;;;;24.22;56.07;101264.25;5031046;28;1184;-69
2021/06/08 08:12:19;;;;;;;;;;;;;;;24.23;56.21;101265.91;5039048;28;1820;-69
2021/06/08 08:14:46;;;;;;;;;;;;;;;24.20;55.93;101261.81;5043334;28;2170;-69
2021/06/08 08:17:12;;;;;;;;;;;;;;;24.21;56.06;101257.94;5046466;28;1851;-69
2021/06/08 08:19:40;;;;;;;;;;;;;;;24.25;56.20;101264.47;5043998;28;1961;-69
2021/06/08 08:22:06;;;;;;;;;;;;;;;24.13;55.92;101264.97;5046115;28;2524;-69
2021/06/08 08:24:31;;;;;;;;;;;;;;;24.00;56.03;101268.53;5046589;28;1575;-69
2021/06/08 08:26:57;;;;;;;;;;;;;;;24.01;55.73;101270.19;5050142;28;1690;-69
2021/06/08 08:29:22;;;;;;;;;;;;;;;24.26;55.31;101271.59;5046929;28;1869;-69
2021/06/08 08:31:47;;;;;;;;;;;;;;;24.23;56.04;101268.66;5047541;28;1757;-69
2021/06/08 08:34:12;;;;;;;;;;;;;;;24.16;56.15;101262.72;5049607;28;1491;-69
2021/06/08 08:36:39;;;;;;;;;;;;;;;24.29;56.49;101264.69;5049744;28;1627;-69
2021/06/08 08:39:07;;;;;;;;;;;;;;;24.40;55.83;101263.31;5047356;28;1929;-69
2021/06/08 08:41:33;;;;;;;;;;;;;;;24.33;55.92;101258.25;5046939;28;1775;-69
2021/06/08 08:44:00;;;;;;;;;;;;;;;24.38;56.03;101262.00;5049297;28;1671;-69
2021/06/08 08:46:25;;;;;;;;;;;;;;;24.48;55.50;101254.34;5050051;28;1699;-69
2021/06/08 08:48:55;;;;;;;;;;;;;;;24.43;55.49;101253.66;5046069;28;1712;-69
2021/06/08 08:51:21;;;;;;;;;;;;;;;24.42;55.33;101254.75;5035577;28;1861;-69
2021/06/08 08:53:47;;;;;;;;;;;;;;;24.38;56.07;101257.31;5045689;28;1986;-69
2021/06/08 08:56:15;;;;;;;;;;;;;;;24.40;55.75;101257.00;5037875;28;959;-69
2021/06/08 08:58:40;;;;;;;;;;;;;;;24.41;55.98;101253.13;5046649;28;1882;-69
2021/06/08 09:01:06;;;;;;;;;;;;;;;24.37;55.73;101250.19;5045456;28;1642;-69
2021/06/08 09:03:32;;;;;;;;;;;;;;;24.44;55.64;101252.53;5040973;28;1737;-69
2021/06/08 09:05:59;;;;;;;;;;;;;;;24.45;55.64;101254.16;5053918;28;862;-69
2021/06/08 09:08:25;;;;;;;;;;;;;;;24.48;55.61;101253.53;5033889;28;874;-69
2021/06/08 09:10:51;;;;;;;;;;;;;;;24.46;55.63;101247.50;5050121;28;1940;-70
2021/06/08 09:13:16;;;;;;;;;;;;;;;24.43;55.37;101243.44;5053826;28;1294;-69
2021/06/08 09:15:42;;;;;;;;;;;;;;;24.47;55.56;101240.91;5051194;28;3059;-69
2021/06/08 09:18:07;;;;;;;;;;;;;;;24.42;55.73;101241.81;5053028;28;2546;-69
2021/06/08 09:20:32;;;;;;;;;;;;;;;24.44;55.45;101242.31;5053602;28;888;-69
2021/06/08 09:23:00;;;;;;;;;;;;;;;24.40;55.45;101237.75;5053194;28;876;-69
2021/06/08 09:25:37;;;;;;;;;;;;;;;24.33;55.64;101238.16;5053550;28;799;-69
2021/06/08 09:28:12;;;;;;;;;;;;;;;24.43;55.30;101240.69;5053892;28;885;-69
2021/06/08 09:30:37;;;;;;;;;;;;;;;24.38;55.02;101238.03;5053484;28;1227;-69
2021/06/08 09:33:11;;;;;;;;;;;;;;;24.41;54.75;101237.44;5053107;28;884;-69
2021/06/08 09:35:36;;;;;;;;;;;;;;;24.47;54.48;101240.91;5053526;28;870;-69
2021/06/08 09:38:01;;;;;;;;;;;;;;;24.35;54.68;101233.16;5052999;28;1945;-69
2021/06/08 09:40:27;;;;;;;;;;;;;;;24.42;54.50;101238.25;5044191;28;1777;-69
2021/06/08 09:43:21;;;;;;;;;;;;;;;24.37;54.73;101230.91;5041561;28;831;-69
2021/06/08 09:45:49;;;;;;;;;;;;;;;24.37;54.55;101230.09;5048228;28;1465;-69
2021/06/08 09:48:15;;;;;;;;;;;;;;;24.35;54.61;101227.66;5051806;28;831;-70
2021/06/08 09:50:40;;;;;;;;;;;;;;;24.34;54.43;101228.75;5053064;28;874;-69
2021/06/08 09:53:15;;;;;;;;;;;;;;;24.35;54.24;101226.81;5052721;28;826;-69
2021/06/08 09:55:47;;;;;;;;;;;;;;;24.47;54.23;101232.63;5041955;28;4065;-69
2021/06/08 09:58:12;;;;;;;;;;;;;;;24.47;54.34;101227.94;5032032;28;1874;-69
2021/06/08 10:00:37;;;;;;;;;;;;;;;24.43;54.17;101232.44;5050830;28;1645;-69
2021/06/08 10:03:03;;;;;;;;;;;;;;;24.33;54.64;101225.22;5053275;28;1454;-69
2021/06/08 10:05:29;;;;;;;;;;;;;;;24.38;54.21;101226.22;5053523;28;874;-69
2021/06/08 10:08:00;;;;;;;;;;;;;;;24.35;53.92;101211.13;5052582;28;883;-69
2021/06/08 10:10:33;;;;;;;;;;;;;;;24.40;53.50;101205.50;5052893;28;839;-69
2021/06/08 10:13:01;;;;;;;;;;;;;;;24.39;53.32;101206.66;5052388;28;1535;-69
2021/06/08 10:15:28;;;;;;;;;;;;;;;24.47;53.43;101194.91;5052167;28;1254;-69
2021/06/08 10:18:20;;;;;;;;;;;;;;;24.36;53.64;101192.69;5052257;28;2003;-69
2021/06/08 10:20:49;;;;;;;;;;;;;;;24.38;54.00;101191.25;5053318;28;1590;-69
2021/06/08 10:23:24;;;;;;;;;;;;;;;24.41;53.47;101195.31;5053924;28;1637;-69
2021/06/08 10:25:50;;;;;;;;;;;;;;;24.44;53.63;101189.19;5065239;28;1584;-69
2021/06/08 10:28:16;;;;;;;;;;;;;;;24.48;52.93;101192.94;5052479;28;873;-69
2021/06/08 10:30:42;;;;;;;;;;;;;;;24.46;52.53;101193.25;5052347;28;944;-69
2021/06/08 10:33:08;;;;;;;;;;;;;;;24.53;52.68;101190.13;5051887;28;1521;-69
2021/06/08 10:35:35;;;;;;;;;;;;;;;24.52;53.40;101210.50;5052596;28;886;-69
2021/06/08 10:38:01;;;;;;;;;;;;;;;24.51;53.19;101186.88;5051785;28;1878;-69
2021/06/08 10:40:27;;;;;;;;;;;;;;;24.55;52.42;101190.63;5052280;28;899;-69
2021/06/08 10:42:52;;;;;;;;;;;;;;;24.59;51.79;101188.88;5046836;28;1737;-70
2021/06/08 10:45:18;;;;;;;;;;;;;;;24.55;51.68;101179.63;5050585;28;833;-69
2021/06/08 10:48:03;;;;;;;;;;;;;;;24.65;52.29;101197.81;5052090;28;1729;-69
2021/06/08 10:50:30;;;;;;;;;;;;;;;24.60;52.44;101195.19;5052125;28;872;-69
2021/06/08 10:52:58;;;;;;;;;;;;;;;24.55;52.91;101198.06;5046803;28;2452;-69
2021/06/08 10:55:28;;;;;;;;;;;;;;;24.56;52.31;101192.25;5046115;28;2567;-69
2021/06/08 10:57:53;;;;;;;;;;;;;;;24.46;52.67;101184.19;5045152;28;1866;-70
2021/06/08 11:00:42;;;;;;;;;;;;;;;24.48;52.83;101173.69;5038207;28;874;-69
2021/06/08 11:03:08;;;;;;;;;;;;;;;24.55;52.92;101171.34;5037024;28;1715;-69
2021/06/08 11:05:45;;;;;;;;;;;;;;;24.53;53.46;101179.13;5044390;28;886;-69
2021/06/08 11:08:11;;;;;;;;;;;;;;;24.59;52.86;101177.03;5041349;28;1786;-69
2021/06/08 11:10:36;;;;;;;;;;;;;;;24.52;53.09;101178.28;5031534;28;1343;-69
2021/06/08 11:13:21;;;;;;;;;;;;;;;24.60;52.65;101165.72;5031701;28;906;-69
2021/06/08 11:15:48;;;;;;;;;;;;;;;24.49;51.54;101165.13;5030460;28;1383;-70
2021/06/08 11:18:19;;;;;;;;;;;;;;;24.50;51.65;101158.50;5031510;28;1907;-69
2021/06/08 11:20:45;;;;;;;;;;;;;;;24.54;51.04;101163.41;5031863;28;933;-69
2021/06/08 11:23:30;;;;;;;;;;;;;;;24.52;50.99;101156.25;5031604;28;943;-69
2021/06/08 11:25:55;;;;;;;;;;;;;;;24.47;50.42;101153.59;5033094;28;1418;-69
2021/06/08 11:28:21;;;;;;;;;;;;;;;24.59;50.51;101147.56;5051679;28;1124;-69
2021/06/08 11:30:52;;;;;;;;;;;;;;;24.58;50.57;101145.94;5051295;28;862;-69
2021/06/08 11:33:26;;;;;;;;;;;;;;;24.58;50.99;101148.69;5051327;28;878;-69
2021/06/08 11:35:51;;;;;;;;;;;;;;;24.55;50.93;101148.50;5051695;28;830;-69
2021/06/08 11:38:30;;;;;;;;;;;;;;;24.60;49.76;101142.88;5051301;28;1925;-69
2021/06/08 11:41:22;;;;;;;;;;;;;;;24.55;49.00;101151.25;5051192;28;868;-69
2021/06/08 11:43:52;;;;;;;;;;;;;;;24.55;49.22;101132.81;5048848;28;1080;-69
2021/06/08 11:46:17;;;;;;;;;;;;;;;24.60;49.62;101131.84;5051231;28;802;-69
2021/06/08 11:48:44;;;;;;;;;;;;;;;24.59;50.41;101143.97;5051290;28;838;-69
2021/06/08 11:51:10;;;;;;;;;;;;;;;24.62;50.44;101146.94;5049962;28;1310;-69
2021/06/08 11:53:55;;;;;;;;;;;;;;;24.66;50.06;101147.94;5051005;28;826;-69
2021/06/08 11:56:20;;;;;;;;;;;;;;;24.62;49.95;101141.41;5047656;28;3310;-69
2021/06/08 11:58:46;;;;;;;;;;;;;;;24.67;50.01;101137.72;5050711;28;1866;-69
2021/06/08 12:01:31;;;;;;;;;;;;;;;24.61;49.73;101130.72;5051265;28;896;-69
2021/06/08 12:03:59;;;;;;;;;;;;;;;24.60;50.65;101135.41;5050696;28;1200;-69
2021/06/08 12:06:45;;;;;;;;;;;;;;;24.62;50.79;101137.88;5050803;28;1120;-69
2021/06/08 12:09:11;;;;;;;;;;;;;;;24.55;51.32;101131.97;5049567;28;1177;-69
2021/06/08 12:11:36;;;;;;;;;;;;;;;24.60;51.42;101151.94;5050769;28;1140;-69
2021/06/08 12:14:07;;;;;;;;;;;;;;;24.48;51.36;101130.44;5050547;28;891;-69
2021/06/08 12:16:33;;;;;;;;;;;;;;;24.42;51.91;101109.66;5050652;28;1122;-69
2021/06/08 12:18:58;;;;;;;;;;;;;;;24.42;51.16;101108.84;5050654;28;1910;-69
2021/06/08 12:21:23;;;;;;;;;;;;;;;24.37;51.74;101109.78;5049929;28;1422;-70
2021/06/08 12:23:50;;;;;;;;;;;;;;;24.45;51.77;101106.28;5051052;28;890;-69
2021/06/08 12:26:21;;;;;;;;;;;;;;;24.47;52.08;101112.28;5050748;28;1586;-69
2021/06/08 12:29:01;;;;;;;;;;;;;;;24.46;51.53;101109.84;5050092;28;923;-69
2021/06/08 12:31:27;;;;;;;;;;;;;;;24.35;51.57;101106.53;5050422;28;902;-69
2021/06/08 12:33:52;;;;;;;;;;;;;;;24.35;50.31;101113.94;5050520;28;851;-69
2021/06/08 12:36:18;;;;;;;;;;;;;;;24.36;50.00;101113.66;5050514;28;894;-69
2021/06/08 12:38:47;;;;;;;;;;;;;;;24.32;49.83;101120.91;5050196;28;1933;-69
2021/06/08 12:41:13;;;;;;;;;;;;;;;24.35;49.91;101112.03;5050487;28;869;-69
2021/06/08 12:43:42;;;;;;;;;;;;;;;24.46;50.36;101112.59;5049914;28;1199;-69
2021/06/08 12:46:07;;;;;;;;;;;;;;;24.54;50.56;101119.34;5050278;28;1698;-69
2021/06/08 12:48:32;;;;;;;;;;;;;;;24.51;50.92;101105.06;5049816;28;1284;-69
2021/06/08 12:50:58;;;;;;;;;;;;;;;24.46;50.91;101109.84;5050279;28;940;-69
2021/06/08 12:53:27;;;;;;;;;;;;;;;24.40;50.68;101113.84;5050290;28;854;-69